createdAt,value
2022-08-07T00:00:39.915Z,2.08
2022-08-07T00:03:08.700Z,1.80
2022-08-07T00:05:38.895Z,2.20
2022-08-07T00:08:08.035Z,2.00
2022-08-07T00:10:48.224Z,1.75
2022-08-07T00:13:25.827Z,2.25
2022-08-07T00:15:55.135Z,2.17
2022-08-07T00:18:25.092Z,2.00
2022-08-07T00:20:56.806Z,1.67
2022-08-07T00:23:28.278Z,1.67
2022-08-07T00:26:01.609Z,1.73
2022-08-07T00:28:34.387Z,1.52
2022-08-07T00:31:04.313Z,1.23
2022-08-07T00:33:33.808Z,1.50
2022-08-07T00:36:03.621Z,1.45
2022-08-07T00:38:33.267Z,1.20
2022-08-07T00:41:02.106Z,1.38
2022-08-07T00:43:59.033Z,1.30
2022-08-07T00:46:17.929Z,1.00
2022-08-07T00:48:45.743Z,1.45
2022-08-07T00:51:19.237Z,1.30
2022-08-07T00:53:54.998Z,1.13
2022-08-07T00:56:30.059Z,1.20
2022-08-07T00:58:58.651Z,1.08
2022-08-07T01:01:26.784Z,1.05
2022-08-07T01:04:00.077Z,1.10
2022-08-07T01:06:30.043Z,0.90
2022-08-07T01:09:00.972Z,0.80
2022-08-07T01:12:10.140Z,1.10
2022-08-07T01:14:17.448Z,1.00
2022-08-07T01:16:49.752Z,1.15
2022-08-07T01:19:19.918Z,1.00
2022-08-07T01:21:53.342Z,0.80
2022-08-07T01:24:23.571Z,0.80
2022-08-07T01:26:52.716Z,0.88
2022-08-07T01:29:23.492Z,0.82
2022-08-07T01:31:59.678Z,1.05
2022-08-07T01:34:27.958Z,0.80
2022-08-07T01:37:00.300Z,0.90
2022-08-07T01:39:41.135Z,0.93
2022-08-07T01:42:39.874Z,1.02
2022-08-07T01:45:04.880Z,0.80
2022-08-07T01:48:18.154Z,1.00
2022-08-07T01:50:28.959Z,1.10
2022-08-07T01:53:00.345Z,1.02
2022-08-07T01:55:35.321Z,1.02
2022-08-07T01:58:28.887Z,1.00
2022-08-07T02:01:09.767Z,0.90
2022-08-07T02:03:50.235Z,0.93
2022-08-07T02:06:31.986Z,0.90
2022-08-07T02:09:05.142Z,1.10
2022-08-07T02:12:04.982Z,1.13
2022-08-07T02:14:35.951Z,1.27
2022-08-07T02:17:09.917Z,0.85
2022-08-07T02:20:07.359Z,0.98
2022-08-07T02:22:30.406Z,1.10
2022-08-07T02:25:00.806Z,1.08
2022-08-07T02:27:34.645Z,1.00
2022-08-07T02:30:07.465Z,1.10
2022-08-07T02:32:39.599Z,0.90
2022-08-07T02:36:30.136Z,0.90
2022-08-07T02:38:16.686Z,0.60
2022-08-07T02:40:47.113Z,0.70
2022-08-07T02:43:16.843Z,0.90
2022-08-07T02:46:00.658Z,0.80
2022-08-07T02:48:30.268Z,0.80
2022-08-07T02:51:01.778Z,0.77
2022-08-07T02:53:38.695Z,0.90
2022-08-07T02:56:21.128Z,0.90
2022-08-07T02:58:51.490Z,0.82
2022-08-07T03:04:07.212Z,0.90
2022-08-07T03:06:36.404Z,0.88
2022-08-07T03:09:11.500Z,0.90
2022-08-07T03:11:52.287Z,1.10
2022-08-07T03:14:27.874Z,1.00
2022-08-07T03:16:56.788Z,0.90
2022-08-07T03:19:29.041Z,1.05
2022-08-07T03:22:07.073Z,1.08
2022-08-07T03:24:36.751Z,1.10
2022-08-07T03:27:09.231Z,1.00
2022-08-07T03:29:44.587Z,0.85
2022-08-07T03:32:20.106Z,0.98
2022-08-07T03:35:00.936Z,0.93
2022-08-07T03:37:46.503Z,0.77
2022-08-07T03:40:22.345Z,0.93
2022-08-07T03:42:52.472Z,1.00
2022-08-07T03:45:31.117Z,1.10
2022-08-07T03:48:00.117Z,1.00
2022-08-07T03:50:29.123Z,1.20
2022-08-07T03:52:58.927Z,0.90
2022-08-07T03:55:53.414Z,0.90
2022-08-07T03:59:07.063Z,0.90
2022-08-07T04:01:07.627Z,0.80
2022-08-07T04:03:53.845Z,0.93
2022-08-07T04:06:37.258Z,1.00
2022-08-07T04:09:08.331Z,0.95
2022-08-07T04:12:25.933Z,0.90
2022-08-07T04:14:37.311Z,1.20
2022-08-07T04:17:19.868Z,1.02
2022-08-07T04:19:52.861Z,1.00
2022-08-07T04:22:29.191Z,0.98
2022-08-07T04:24:58.546Z,1.10
2022-08-07T04:27:26.875Z,1.17
2022-08-07T04:30:01.281Z,1.00
2022-08-07T04:32:34.652Z,1.13
2022-08-07T04:35:05.730Z,1.10
2022-08-07T04:37:52.929Z,1.08
2022-08-07T04:40:29.830Z,1.20
2022-08-07T04:43:02.111Z,1.27
2022-08-07T04:45:52.085Z,1.08
2022-08-07T04:48:39.238Z,1.02
2022-08-07T04:54:01.420Z,1.00
2022-08-07T04:58:23.768Z,1.00
2022-08-07T05:00:10.746Z,1.00
2022-08-07T05:02:30.567Z,1.02
2022-08-07T05:05:11.426Z,1.05
2022-08-07T05:07:51.754Z,1.20
2022-08-07T05:10:29.490Z,1.10
2022-08-07T05:13:09.841Z,0.80
2022-08-07T05:15:53.732Z,1.10
2022-08-07T05:18:29.660Z,1.17
2022-08-07T05:21:00.262Z,1.00
2022-08-07T05:23:35.494Z,1.20
2022-08-07T05:26:11.859Z,1.10
2022-08-07T05:28:50.007Z,1.00
2022-08-07T05:31:21.587Z,1.00
2022-08-07T05:36:35.812Z,1.27
2022-08-07T05:39:16.004Z,1.00
2022-08-07T05:42:02.473Z,0.93
2022-08-07T05:44:34.795Z,1.02
2022-08-07T05:47:18.100Z,1.00
2022-08-07T05:49:50.347Z,1.20
2022-08-07T05:52:20.112Z,1.00
2022-08-07T05:54:55.544Z,1.10
2022-08-07T05:57:26.693Z,1.17
2022-08-07T06:00:00.154Z,1.30
2022-08-07T06:02:32.405Z,0.93
2022-08-07T06:05:06.281Z,1.00
2022-08-07T06:08:13.362Z,0.98
2022-08-07T06:10:24.928Z,0.93
2022-08-07T06:12:52.942Z,1.05
2022-08-07T06:15:39.285Z,1.10
2022-08-07T06:18:13.956Z,0.80
2022-08-07T06:20:49.977Z,1.37
2022-08-07T06:24:38.657Z,1.20
2022-08-07T06:26:21.729Z,1.10
2022-08-07T06:28:59.563Z,0.98
2022-08-07T06:31:46.869Z,1.00
2022-08-07T06:34:20.411Z,1.00
2022-08-07T06:36:52.028Z,1.00
2022-08-07T06:40:17.801Z,0.80
2022-08-07T06:42:10.831Z,1.10
2022-08-07T06:44:39.798Z,1.00
2022-08-07T06:47:12.675Z,1.27
2022-08-07T06:49:52.261Z,1.00
2022-08-07T06:52:35.633Z,1.20
2022-08-07T06:55:32.014Z,1.00
2022-08-07T06:57:59.446Z,0.93
2022-08-07T07:00:28.631Z,1.08
2022-08-07T07:03:01.164Z,1.00
2022-08-07T07:06:02.762Z,0.88
2022-08-07T07:08:28.589Z,1.20
2022-08-07T07:10:57.846Z,1.17
2022-08-07T07:13:43.653Z,0.90
2022-08-07T07:16:27.539Z,1.00
2022-08-07T07:19:04.189Z,1.00
2022-08-07T07:22:05.172Z,1.02
2022-08-07T07:24:58.407Z,1.17
2022-08-07T07:27:55.747Z,1.17
2022-08-07T07:33:02.673Z,1.42
2022-08-07T07:35:33.338Z,0.90
2022-08-07T07:38:04.972Z,0.90
2022-08-07T07:40:36.840Z,0.95
2022-08-07T07:43:15.328Z,1.00
2022-08-07T07:46:36.990Z,1.60
2022-08-07T07:48:38.489Z,1.45
2022-08-07T07:51:08.544Z,1.05
2022-08-07T07:53:50.355Z,1.30
2022-08-07T07:56:30.306Z,1.30
2022-08-07T07:59:01.633Z,1.02
2022-08-07T08:02:03.110Z,1.50
2022-08-07T08:04:25.556Z,1.10
2022-08-07T08:06:55.245Z,1.15
2022-08-07T08:09:29.559Z,1.00
2022-08-07T08:12:05.010Z,1.33
2022-08-07T08:14:34.334Z,1.55
2022-08-07T08:17:32.295Z,1.48
2022-08-07T08:20:18.853Z,1.30
2022-08-07T08:23:08.309Z,1.30
2022-08-07T08:25:56.915Z,1.63
2022-08-07T08:28:37.579Z,1.35
2022-08-07T08:31:13.816Z,1.15
2022-08-07T08:33:48.973Z,1.20
2022-08-07T08:36:25.749Z,1.40
2022-08-07T08:39:02.078Z,1.30
2022-08-07T08:41:58.408Z,1.40
2022-08-07T08:44:41.149Z,1.50
2022-08-07T08:47:22.692Z,1.58
2022-08-07T08:50:05.008Z,1.60
2022-08-07T08:52:40.766Z,1.70
2022-08-07T08:55:55.189Z,1.60
2022-08-07T08:58:28.818Z,1.50
2022-08-07T09:01:15.752Z,1.60
2022-08-07T09:03:55.210Z,1.55
2022-08-07T09:06:48.069Z,1.45
2022-08-07T09:12:30.522Z,1.70
2022-08-07T09:16:25.297Z,1.80
2022-08-07T09:18:27.928Z,1.70
2022-08-07T09:21:06.884Z,1.85
2022-08-07T09:24:33.138Z,1.70
2022-08-07T09:26:51.943Z,1.77
2022-08-07T09:30:04.096Z,1.50
2022-08-07T09:32:32.535Z,1.90
2022-08-07T09:36:02.768Z,1.70
2022-08-07T09:38:10.953Z,1.50
2022-08-07T09:40:52.152Z,1.50
2022-08-07T09:43:40.143Z,1.77
2022-08-07T09:47:49.462Z,1.60
2022-08-07T09:50:02.567Z,1.60
2022-08-07T09:52:34.094Z,1.60
2022-08-07T09:55:29.840Z,1.73
2022-08-07T09:58:32.409Z,1.40
2022-08-07T10:01:51.760Z,1.30
2022-08-07T10:04:28.237Z,1.50
2022-08-07T10:07:25.751Z,1.52
2022-08-07T10:10:11.977Z,1.52
2022-08-07T10:13:29.676Z,1.60
2022-08-07T10:16:16.334Z,1.40
2022-08-07T10:19:15.548Z,1.58
2022-08-07T10:22:15.765Z,1.48
2022-08-07T10:24:52.088Z,1.40
2022-08-07T10:27:46.227Z,1.30
2022-08-07T10:30:19.044Z,1.40
2022-08-07T10:33:08.408Z,1.50
2022-08-07T10:35:56.961Z,1.35
2022-08-07T10:38:48.385Z,1.50
2022-08-07T10:41:47.193Z,1.40
2022-08-07T10:44:37.420Z,1.27
2022-08-07T10:47:26.975Z,1.40
2022-08-07T10:50:15.220Z,1.40
2022-08-07T10:52:53.362Z,1.33
2022-08-07T10:55:38.711Z,1.20
2022-08-07T10:58:18.848Z,1.10
2022-08-07T11:01:22.334Z,1.30
2022-08-07T11:04:11.046Z,1.40
2022-08-07T11:06:55.013Z,1.45
2022-08-07T11:10:10.389Z,1.23
2022-08-07T11:12:31.455Z,1.55
2022-08-07T11:15:09.649Z,1.33
2022-08-07T11:17:53.911Z,1.45
2022-08-07T11:20:25.665Z,1.52
2022-08-07T11:23:02.654Z,1.45
2022-08-07T11:25:47.963Z,1.45
2022-08-07T11:28:24.667Z,1.63
2022-08-07T11:30:59.075Z,1.40
2022-08-07T11:33:54.079Z,1.30
2022-08-07T11:36:44.795Z,1.17
2022-08-07T11:39:59.333Z,1.60
2022-08-07T11:42:29.667Z,1.30
2022-08-07T11:45:01.036Z,1.30
2022-08-07T11:47:56.729Z,1.10
2022-08-07T11:50:44.297Z,1.45
2022-08-07T11:53:28.416Z,1.20
2022-08-07T11:56:26.905Z,1.40
2022-08-07T12:00:08.236Z,0.98
2022-08-07T12:04:57.950Z,1.30
2022-08-07T12:07:39.098Z,1.20
2022-08-07T12:12:49.221Z,1.20
2022-08-07T12:15:35.940Z,1.23
2022-08-07T12:18:22.373Z,1.25
2022-08-07T12:21:08.844Z,1.20
2022-08-07T12:24:07.030Z,1.40
2022-08-07T12:26:46.825Z,1.13
2022-08-07T12:29:38.491Z,1.30
2022-08-07T12:32:18.234Z,1.17
2022-08-07T12:34:53.456Z,1.17
2022-08-07T12:37:28.163Z,1.08
2022-08-07T12:40:46.932Z,1.20
2022-08-07T12:43:11.766Z,1.00
2022-08-07T12:46:26.003Z,1.30
2022-08-07T12:49:10.125Z,0.95
2022-08-07T12:52:12.002Z,1.23
2022-08-07T12:54:54.750Z,1.00
2022-08-07T12:57:39.262Z,1.10
2022-08-07T13:00:31.275Z,1.15
2022-08-07T13:04:02.048Z,1.20
2022-08-07T13:07:02.833Z,1.00
2022-08-07T13:10:20.027Z,1.10
2022-08-07T13:12:51.642Z,1.00
2022-08-07T13:15:31.679Z,1.02
2022-08-07T13:18:25.800Z,1.10
2022-08-07T13:21:03.627Z,1.30
2022-08-07T13:24:01.873Z,1.42
2022-08-07T13:26:35.187Z,1.30
2022-08-07T13:29:12.856Z,1.17
2022-08-07T13:31:57.357Z,1.13
2022-08-07T13:34:36.614Z,1.00
2022-08-07T13:37:20.800Z,1.27
2022-08-07T13:40:36.487Z,0.80
2022-08-07T13:42:51.388Z,1.08
2022-08-07T13:46:11.800Z,0.90
2022-08-07T13:48:27.540Z,1.60
2022-08-07T13:51:02.662Z,1.00
2022-08-07T13:54:00.688Z,1.27
2022-08-07T13:56:36.037Z,1.10
2022-08-07T13:59:13.592Z,1.00
2022-08-07T14:02:03.655Z,1.10
2022-08-07T14:04:36.021Z,1.20
2022-08-07T14:07:09.388Z,1.00
2022-08-07T14:10:12.633Z,1.13
2022-08-07T14:12:36.190Z,2.03
